Time;durP1;ratioP1;P1;durP2;ratioP2;P2;SDS_P1;SDS_P2;PMS_P1;PMS_P2;Temp;Humidity;BMP_temperature;BMP_pressure;BME280_temperature;BME280_humidity;BME280_pressure;Samples;Min_cycle;Max_cycle;Signal;HPM_P1;HPM_P2
2021/07/10 00:00:28;;;;;;;9.23;6.50;;;;;;;14.57;89.08;97131.91;4992190;28;20049;-64
2021/07/10 00:02:53;;;;;;;8.30;6.60;;;;;;;14.55;89.07;97124.03;4985033;28;20051;-64
2021/07/10 00:05:19;;;;;;;11.10;6.28;;;;;;;14.48;89.68;97129.50;4978873;28;20089;-62
2021/07/10 00:07:44;;;;;;;13.10;6.68;;;;;;;14.46;89.14;97132.63;4983992;28;20046;-63
2021/07/10 00:10:13;;;;;;;8.75;6.65;;;;;;;14.47;89.17;97123.16;4961212;28;20050;-62
2021/07/10 00:12:39;;;;;;;9.15;6.38;;;;;;;14.42;89.60;97119.97;4983229;28;20042;-61
2021/07/10 00:15:07;;;;;;;10.05;6.75;;;;;;;14.37;89.49;97112.88;4962020;28;20038;-62
2021/07/10 00:17:33;;;;;;;11.80;6.88;;;;;;;14.36;90.13;97108.53;4983611;28;20046;-63
2021/07/10 00:19:58;;;;;;;10.32;7.28;;;;;;;14.41;89.63;97104.63;4983868;28;20100;-63
2021/07/10 00:22:24;;;;;;;9.63;7.53;;;;;;;14.36;89.99;97091.22;4977058;28;20050;-63
2021/07/10 00:24:49;;;;;;;11.20;7.30;;;;;;;14.24;90.41;97097.78;4983026;28;20153;-63
2021/07/10 00:27:14;;;;;;;11.38;7.95;;;;;;;14.22;90.68;97108.41;4973529;28;20054;-63
2021/07/10 00:29:40;;;;;;;11.57;6.90;;;;;;;14.14;91.60;97110.31;4982835;28;20121;-63
2021/07/10 00:32:06;;;;;;;10.73;7.97;;;;;;;14.04;91.63;97095.25;4977655;28;20053;-62
2021/07/10 00:34:31;;;;;;;12.07;7.20;;;;;;;14.02;91.41;97094.84;4978617;28;20134;-63
2021/07/10 00:36:56;;;;;;;10.00;7.45;;;;;;;14.02;91.67;97094.06;4983977;28;20046;-63
2021/07/10 00:39:22;;;;;;;10.93;6.82;;;;;;;14.05;91.99;97090.56;4977157;28;20634;-63
2021/07/10 00:41:47;;;;;;;9.10;6.40;;;;;;;14.07;91.91;97090.97;4983472;28;20518;-63
2021/07/10 00:44:12;;;;;;;10.13;6.70;;;;;;;14.07;91.65;97104.75;4976036;28;20097;-63
2021/07/10 00:46:38;;;;;;;10.38;6.43;;;;;;;14.05;92.30;97088.59;4981587;28;20478;-63
2021/07/10 00:49:04;;;;;;;9.82;6.38;;;;;;;14.10;92.44;97093.75;4979773;28;20050;-62
2021/07/10 00:51:29;;;;;;;10.48;6.30;;;;;;;14.10;92.02;97096.50;4981987;28;20772;-63
2021/07/10 00:53:54;;;;;;;9.80;6.57;;;;;;;13.96;92.96;97101.88;4981605;28;20078;-63
2021/07/10 00:56:20;;;;;;;9.23;5.90;;;;;;;13.83;93.67;97101.38;4978109;28;20030;-63
2021/07/10 00:58:46;;;;;;;11.48;7.25;;;;;;;13.97;93.52;97092.44;4966072;28;20064;-63
2021/07/10 01:01:12;;;;;;;10.35;5.97;;;;;;;14.02;92.07;97091.31;4977599;28;20057;-63
2021/07/10 01:03:44;;;;;;;9.57;6.50;;;;;;;13.95;92.67;97092.03;4982267;28;20039;-62
2021/07/10 01:06:10;;;;;;;9.55;6.35;;;;;;;14.00;92.86;97091.69;4977994;28;20045;-62
2021/07/10 01:08:36;;;;;;;7.80;5.95;;;;;;;13.92;92.78;97088.09;4980275;28;20042;-63
2021/07/10 01:11:01;;;;;;;9.82;6.85;;;;;;;13.86;92.47;97078.56;4982882;28;20698;-68
2021/07/10 01:13:27;;;;;;;11.30;6.45;;;;;;;13.75;93.10;97072.97;4975584;28;20050;-62
2021/07/10 01:15:53;;;;;;;9.30;6.43;;;;;;;13.64;92.50;97072.06;4982777;28;20073;-63
2021/07/10 01:18:18;;;;;;;13.05;6.45;;;;;;;13.53;94.07;97062.91;4977452;28;20039;-64
2021/07/10 01:20:54;;;;;;;13.50;7.47;;;;;;;13.40;93.95;97054.16;4975803;28;20038;-64
2021/07/10 01:23:23;;;;;;;17.75;7.10;;;;;;;13.43;95.54;97058.88;4978711;28;20125;-65
2021/07/10 01:25:49;;;;;;;11.75;7.47;;;;;;;13.32;96.11;97064.25;4988881;28;20060;-63
2021/07/10 01:28:15;;;;;;;8.63;6.55;;;;;;;13.22;96.30;97062.16;4975227;28;20109;-63
2021/07/10 01:30:42;;;;;;;8.70;6.47;;;;;;;13.14;96.86;97064.03;4982592;28;20045;-63
2021/07/10 01:33:08;;;;;;;9.55;7.28;;;;;;;13.06;96.49;97050.56;4977025;28;20056;-63
2021/07/10 01:35:34;;;;;;;11.68;6.97;;;;;;;12.93;98.10;97053.56;4982319;28;20494;-63
2021/07/10 01:38:01;;;;;;;9.93;7.30;;;;;;;12.84;99.80;97044.00;4982226;28;20053;-64
2021/07/10 01:40:26;;;;;;;14.45;7.50;;;;;;;12.79;99.80;97045.91;4977457;28;20478;-66
2021/07/10 01:42:53;;;;;;;15.73;7.60;;;;;;;12.72;99.82;97045.81;4980962;28;20050;-65
2021/07/10 01:45:23;;;;;;;10.50;6.82;;;;;;;12.71;100.00;97038.75;4968059;28;20475;-63
2021/07/10 01:47:50;;;;;;;8.55;6.15;;;;;;;12.72;100.00;97040.31;4964545;28;20077;-62
2021/07/10 01:50:16;;;;;;;8.77;5.97;;;;;;;12.74;100.00;97031.72;4968763;28;20063;-64
2021/07/10 01:52:43;;;;;;;13.40;7.55;;;;;;;12.72;100.00;97036.78;4980351;28;20039;-64
2021/07/10 01:55:11;;;;;;;10.20;6.70;;;;;;;12.72;100.00;97023.06;4972696;28;20050;-63
2021/07/10 01:57:38;;;;;;;9.80;6.75;;;;;;;12.68;100.00;97027.72;4982182;28;20077;-64
2021/07/10 02:00:11;;;;;;;12.45;7.78;;;;;;;12.57;100.00;97016.59;4978963;28;20043;-61
2021/07/10 02:02:38;;;;;;;10.23;7.72;;;;;;;12.49;100.00;97014.88;4979167;28;20046;-64
2021/07/10 02:05:04;;;;;;;11.95;8.85;;;;;;;12.45;100.00;97005.81;4977925;28;20045;-61
2021/07/10 02:07:29;;;;;;;19.25;8.57;;;;;;;12.36;100.00;97020.59;4979206;28;20104;-64
2021/07/10 02:09:55;;;;;;;16.08;8.27;;;;;;;12.26;100.00;97007.50;4972137;28;20050;-63
2021/07/10 02:12:20;;;;;;;8.70;7.38;;;;;;;12.24;100.00;97004.31;4976805;28;20042;-64
2021/07/10 02:14:46;;;;;;;9.38;6.70;;;;;;;12.25;100.00;97008.66;4984235;28;20110;-63
2021/07/10 02:17:11;;;;;;;8.77;6.97;;;;;;;12.22;100.00;97004.69;4983468;28;20069;-64
2021/07/10 02:19:37;;;;;;;14.18;7.18;;;;;;;12.18;100.00;97001.09;4980445;28;20499;-64
2021/07/10 02:22:08;;;;;;;12.20;7.70;;;;;;;12.10;100.00;97006.84;4962579;28;20046;-60
2021/07/10 02:24:36;;;;;;;14.20;7.68;;;;;;;12.04;100.00;97004.41;4957193;28;20052;-62
2021/07/10 02:27:03;;;;;;;9.38;7.10;;;;;;;11.98;100.00;97007.88;4981770;28;20081;-60
2021/07/10 02:29:33;;;;;;;20.98;7.57;;;;;;;12.12;100.00;97018.25;4964376;28;20141;-64
2021/07/10 02:31:58;;;;;;;9.23;6.68;;;;;;;12.21;100.00;97002.34;4965110;28;20042;-64
2021/07/10 02:34:24;;;;;;;10.10;6.18;;;;;;;12.29;100.00;97004.00;4973087;28;20117;-64
2021/07/10 02:36:49;;;;;;;9.68;6.18;;;;;;;12.46;100.00;97001.88;4954069;28;20587;-64
2021/07/10 02:39:15;;;;;;;11.18;6.90;;;;;;;12.47;100.00;96989.75;4964642;28;20057;-64
2021/07/10 02:41:40;;;;;;;11.13;6.70;;;;;;;12.52;100.00;96995.72;4981405;28;20042;-63
2021/07/10 02:44:06;;;;;;;8.73;6.88;;;;;;;12.54;100.00;96984.34;4988627;28;20058;-63
2021/07/10 02:46:32;;;;;;;10.00;7.38;;;;;;;12.48;100.00;96994.06;4986105;28;20137;-64
2021/07/10 02:48:58;;;;;;;10.75;7.57;;;;;;;12.43;100.00;96995.97;4973609;28;20489;-64
2021/07/10 02:51:27;;;;;;;10.35;6.95;;;;;;;12.43;100.00;96995.97;4973625;28;20097;-64
2021/07/10 02:53:56;;;;;;;11.35;6.88;;;;;;;12.39;100.00;96984.16;4956909;28;20050;-64
2021/07/10 02:56:25;;;;;;;10.80;7.03;;;;;;;12.37;100.00;96983.75;4976876;28;29265;-64
2021/07/10 02:58:51;;;;;;;7.97;6.18;;;;;;;12.39;100.00;96978.66;4970529;28;20069;-64
2021/07/10 03:01:18;;;;;;;9.75;6.57;;;;;;;12.35;100.00;96972.34;4964551;28;20046;-64
2021/07/10 03:03:43;;;;;;;9.60;6.82;;;;;;;12.32;100.00;96969.53;4971985;28;20161;-63
2021/07/10 03:06:09;;;;;;;10.65;7.50;;;;;;;12.28;100.00;96964.00;4973530;28;20138;-64
2021/07/10 03:08:34;;;;;;;9.75;7.70;;;;;;;12.11;100.00;96961.78;4976930;28;20042;-64
2021/07/10 03:11:00;;;;;;;14.02;7.03;;;;;;;11.91;100.00;96969.34;4966694;28;20042;-64
2021/07/10 03:13:26;;;;;;;10.80;6.90;;;;;;;11.77;100.00;96969.84;4965992;28;20078;-64
2021/07/10 03:15:52;;;;;;;9.65;6.70;;;;;;;11.64;100.00;96975.53;4974325;28;20042;-64
2021/07/10 03:18:20;;;;;;;10.45;7.45;;;;;;;11.51;100.00;96973.38;4945419;28;20431;-63
2021/07/10 03:20:46;;;;;;;11.25;7.68;;;;;;;11.61;100.00;96967.25;4978240;28;20038;-64
2021/07/10 03:23:11;;;;;;;13.00;7.57;;;;;;;11.80;100.00;96966.38;4966601;28;20396;-64
2021/07/10 03:25:37;;;;;;;12.05;6.95;;;;;;;11.87;100.00;96966.50;4967516;28;20039;-64
2021/07/10 03:28:03;;;;;;;10.32;7.30;;;;;;;11.82;100.00;96966.81;4976245;28;20059;-63
2021/07/10 03:30:28;;;;;;;12.48;7.38;;;;;;;11.84;100.00;96968.00;4975420;28;20052;-64
2021/07/10 03:32:54;;;;;;;11.65;7.35;;;;;;;11.99;100.00;96968.25;4975209;28;20047;-64
2021/07/10 03:35:20;;;;;;;12.70;6.90;;;;;;;12.04;100.00;96976.97;4945476;28;20047;-64
2021/07/10 03:37:47;;;;;;;24.35;7.40;;;;;;;12.13;100.00;96976.72;4980833;28;20046;-64
2021/07/10 03:40:15;;;;;;;18.75;7.70;;;;;;;12.13;100.00;96965.72;4975632;28;20202;-64
2021/07/10 03:42:41;;;;;;;10.40;6.70;;;;;;;12.10;100.00;96974.72;4981289;28;20053;-64
2021/07/10 03:45:08;;;;;;;9.10;6.43;;;;;;;12.06;100.00;96973.84;4965386;28;20038;-64
2021/07/10 03:47:34;;;;;;;8.73;6.22;;;;;;;12.12;100.00;96969.66;4975189;28;20043;-63
2021/07/10 03:49:59;;;;;;;17.58;7.03;;;;;;;12.18;100.00;96970.13;4970929;28;20066;-64
2021/07/10 03:52:25;;;;;;;10.73;6.65;;;;;;;12.16;100.00;96970.50;4971094;28;20050;-64
2021/07/10 03:54:51;;;;;;;9.07;6.55;;;;;;;12.21;100.00;96963.91;4968504;28;20526;-64
2021/07/10 03:57:16;;;;;;;12.35;7.20;;;;;;;12.00;100.00;96967.13;4951199;28;20047;-64
2021/07/10 03:59:42;;;;;;;14.25;7.65;;;;;;;11.81;100.00;96968.78;4976118;28;20046;-64
2021/07/10 04:02:07;;;;;;;11.23;7.28;;;;;;;11.60;100.00;96971.16;4966742;28;20042;-64
2021/07/10 04:04:32;;;;;;;13.73;8.23;;;;;;;11.35;100.00;96968.78;4957270;28;20042;-64
2021/07/10 04:06:58;;;;;;;13.05;8.48;;;;;;;11.38;100.00;96970.81;4975118;28;20058;-65
2021/07/10 04:09:24;;;;;;;12.68;8.98;;;;;;;11.54;100.00;96976.16;4970060;28;20499;-62
2021/07/10 04:11:49;;;;;;;13.63;8.63;;;;;;;11.72;100.00;96967.44;4975432;28;20042;-62
2021/07/10 04:14:15;;;;;;;17.25;9.52;;;;;;;11.69;100.00;96962.69;4978199;28;20077;-65
2021/07/10 04:16:40;;;;;;;16.23;8.85;;;;;;;11.92;100.00;96960.72;4979773;28;20385;-65
2021/07/10 04:19:05;;;;;;;13.55;8.70;;;;;;;12.24;100.00;96963.94;4964969;28;20062;-62
2021/07/10 04:21:31;;;;;;;10.80;7.85;;;;;;;12.40;100.00;96968.47;4983042;28;20682;-64
2021/07/10 04:23:56;;;;;;;14.52;8.02;;;;;;;12.56;100.00;96963.56;4974454;28;20043;-62
2021/07/10 04:26:22;;;;;;;12.60;7.28;;;;;;;12.84;99.58;96956.84;4970368;28;21172;-62
2021/07/10 04:28:47;;;;;;;12.73;7.15;;;;;;;12.97;98.00;96957.38;4982839;28;20057;-65
2021/07/10 04:31:13;;;;;;;13.65;6.75;;;;;;;13.14;98.07;96966.97;4973931;28;20546;-63
2021/07/10 04:33:38;;;;;;;11.23;6.85;;;;;;;13.35;96.38;96969.97;4974453;28;20038;-62
2021/07/10 04:36:04;;;;;;;7.28;5.97;;;;;;;13.55;95.32;96969.78;4965884;28;20133;-62
2021/07/10 04:38:29;;;;;;;9.27;6.35;;;;;;;13.67;94.76;96955.72;4973571;28;20692;-63
2021/07/10 04:40:55;;;;;;;9.48;6.32;;;;;;;13.83;93.90;96951.91;4982679;28;20046;-63
2021/07/10 04:43:20;;;;;;;10.48;6.32;;;;;;;14.01;92.50;96952.03;4969429;28;20525;-63
2021/07/10 04:45:46;;;;;;;10.45;6.63;;;;;;;13.96;92.47;96956.72;4978032;28;20088;-64
2021/07/10 04:48:11;;;;;;;9.23;5.90;;;;;;;14.20;91.86;96951.75;4970355;28;20097;-64
2021/07/10 04:50:36;;;;;;;8.90;5.95;;;;;;;14.43;90.50;96950.72;4982924;28;20046;-63
2021/07/10 04:53:03;;;;;;;8.68;6.38;;;;;;;14.62;89.80;96944.94;4980082;28;20049;-63
2021/07/10 04:55:29;;;;;;;8.52;6.70;;;;;;;15.02;87.68;96948.63;4973077;28;20625;-64
2021/07/10 04:57:54;;;;;;;12.73;5.65;;;;;;;15.97;84.01;96953.06;4989328;28;20050;-64
2021/07/10 05:00:20;;;;;;;9.35;5.13;;;;;;;17.64;77.10;96946.47;4984053;28;20046;-63
2021/07/10 05:02:45;;;;;;;7.50;4.55;;;;;;;18.97;69.10;96942.41;4968335;28;20046;-64
2021/07/10 05:05:11;;;;;;;6.15;4.45;;;;;;;20.58;63.37;96944.59;4964993;28;20074;-63
2021/07/10 05:07:37;;;;;;;9.30;4.20;;;;;;;22.07;57.81;96949.31;4968777;28;20078;-64
2021/07/10 05:10:04;;;;;;;5.15;3.40;;;;;;;22.95;53.42;96947.38;4971667;28;20046;-64
2021/07/10 05:12:29;;;;;;;7.78;3.38;;;;;;;23.91;49.08;96947.69;4969945;28;20109;-64
2021/07/10 05:14:54;;;;;;;6.50;3.38;;;;;;;23.72;49.48;96947.47;4980393;28;20050;-64
2021/07/10 05:17:20;;;;;;;5.32;3.28;;;;;;;23.44;51.06;96957.53;4973550;28;20137;-64
2021/07/10 05:19:46;;;;;;;4.85;3.38;;;;;;;23.45;51.21;96959.88;4982734;28;20554;-63
2021/07/10 05:22:12;;;;;;;5.20;2.90;;;;;;;24.85;47.95;96954.47;4968631;28;20051;-62
2021/07/10 05:24:38;;;;;;;5.35;3.10;;;;;;;24.32;48.26;96957.13;4976321;28;20094;-63
2021/07/10 05:27:05;;;;;;;5.05;2.72;;;;;;;24.24;49.44;96957.38;4972583;28;20050;-62
2021/07/10 05:29:30;;;;;;;3.88;2.88;;;;;;;24.17;49.08;96954.81;4971458;28;20049;-63
2021/07/10 05:31:56;;;;;;;6.18;3.67;;;;;;;22.97;51.62;96956.09;4980090;28;20101;-63
2021/07/10 05:34:22;;;;;;;4.13;2.65;;;;;;;23.48;50.61;96945.00;4975228;28;20615;-64
2021/07/10 05:36:48;;;;;;;5.97;3.30;;;;;;;21.94;55.71;96961.19;4975010;28;20043;-63
2021/07/10 05:39:13;;;;;;;5.30;3.10;;;;;;;21.58;58.14;96961.25;4973055;28;20491;-64
2021/07/10 05:41:39;;;;;;;4.50;2.65;;;;;;;23.42;54.68;96957.97;4967022;28;20129;-63
2021/07/10 05:44:05;;;;;;;5.53;2.83;;;;;;;25.23;47.62;96959.06;4967873;28;20039;-62
2021/07/10 05:46:30;;;;;;;5.57;3.15;;;;;;;26.45;45.15;96953.41;4979949;28;20053;-63
2021/07/10 05:48:56;;;;;;;4.90;2.42;;;;;;;27.83;41.03;96956.00;4969621;28;20057;-65
2021/07/10 05:51:21;;;;;;;6.45;2.85;;;;;;;26.97;42.11;96953.59;4976255;28;20930;-63
2021/07/10 05:53:47;;;;;;;8.73;2.92;;;;;;;27.65;41.22;96944.81;4981999;28;20042;-65
2021/07/10 05:56:12;;;;;;;5.65;2.40;;;;;;;27.52;41.47;96945.03;4975728;28;20101;-64
2021/07/10 05:58:38;;;;;;;6.22;2.85;;;;;;;28.00;39.14;96945.16;4972673;28;20125;-64
2021/07/10 06:01:03;;;;;;;6.78;2.55;;;;;;;28.55;39.50;96941.19;4970717;28;20059;-63
2021/07/10 06:03:29;;;;;;;5.68;2.28;;;;;;;29.10;37.75;96948.38;4971054;28;20043;-64
2021/07/10 06:05:54;;;;;;;4.97;2.22;;;;;;;25.99;42.03;96948.53;4975209;28;20389;-64
2021/07/10 06:08:19;;;;;;;4.25;2.50;;;;;;;20.53;55.06;96957.03;4965190;28;20116;-64
2021/07/10 06:10:45;;;;;;;5.97;2.83;;;;;;;20.46;58.07;96948.03;4971126;28;20050;-64
2021/07/10 06:13:10;;;;;;;6.07;3.22;;;;;;;20.11;58.30;96942.69;4949011;28;20129;-64
2021/07/10 06:15:36;;;;;;;6.40;3.22;;;;;;;18.76;65.61;96940.66;4976751;28;20047;-63
2021/07/10 06:18:01;;;;;;;4.90;2.60;;;;;;;19.68;61.37;96940.59;4977894;28;20129;-64
2021/07/10 06:20:27;;;;;;;6.38;2.63;;;;;;;19.42;62.08;96945.75;4977866;28;20527;-64
2021/07/10 06:22:53;;;;;;;5.20;2.75;;;;;;;19.07;63.35;96945.06;4981378;28;20116;-64
2021/07/10 06:25:19;;;;;;;9.80;2.70;;;;;;;20.23;59.65;96935.72;4969744;28;20443;-64
2021/07/10 06:27:47;;;;;;;7.22;2.67;;;;;;;21.05;56.89;96950.06;4972486;28;20103;-65
2021/07/10 06:30:13;;;;;;;6.65;2.85;;;;;;;20.33;59.14;96950.63;4964708;28;20097;-65
2021/07/10 06:32:39;;;;;;;6.03;2.80;;;;;;;22.28;54.45;96942.44;4970266;28;20780;-63
2021/07/10 06:35:06;;;;;;;9.18;2.45;;;;;;;22.38;52.86;96946.16;4962024;28;20132;-62
2021/07/10 06:37:32;;;;;;;4.18;2.55;;;;;;;21.89;53.62;96939.38;4970535;28;21479;-63
2021/07/10 06:39:57;;;;;;;3.42;2.47;;;;;;;21.44;55.86;96956.75;4969605;28;20053;-64
2021/07/10 06:42:23;;;;;;;6.10;2.33;;;;;;;20.59;57.47;96944.19;4966096;28;20525;-63
2021/07/10 06:44:48;;;;;;;4.15;2.25;;;;;;;21.18;57.75;96948.16;4980702;28;20129;-64
2021/07/10 06:47:14;;;;;;;5.88;2.78;;;;;;;23.96;50.24;96931.13;4966459;28;20038;-64
2021/07/10 06:49:40;;;;;;;5.45;2.40;;;;;;;22.17;55.01;96939.13;4979626;28;20046;-63
2021/07/10 06:52:07;;;;;;;4.28;2.20;;;;;;;21.41;55.60;96934.53;4975552;28;20053;-64
2021/07/10 06:54:33;;;;;;;3.28;2.30;;;;;;;24.01;48.82;96929.78;4970798;28;20057;-63
2021/07/10 06:56:58;;;;;;;5.25;2.05;;;;;;;24.91;47.09;96927.44;4981541;28;20053;-63
2021/07/10 06:59:24;;;;;;;4.53;2.40;;;;;;;20.04;59.18;96924.16;4971278;28;20275;-63
2021/07/10 07:01:50;;;;;;;5.05;3.08;;;;;;;20.35;59.03;96928.78;4972747;28;20054;-63
2021/07/10 07:04:17;;;;;;;4.68;2.67;;;;;;;19.58;62.02;96930.44;4951044;28;20758;-63
2021/07/10 07:06:42;;;;;;;4.30;2.55;;;;;;;20.37;60.92;96926.34;4981063;28;20050;-63
2021/07/10 07:09:08;;;;;;;4.72;2.70;;;;;;;19.62;62.22;96926.38;4975424;28;20775;-63
2021/07/10 07:11:33;;;;;;;4.45;2.85;;;;;;;19.59;63.16;96916.13;4980157;28;20046;-63
2021/07/10 07:13:59;;;;;;;4.88;2.53;;;;;;;21.10;57.89;96915.34;4972243;28;20056;-63
2021/07/10 07:16:24;;;;;;;3.90;2.40;;;;;;;22.99;51.19;96906.16;4973284;28;20551;-63
2021/07/10 07:18:50;;;;;;;4.85;2.30;;;;;;;22.21;53.89;96897.97;4972962;28;20108;-63
2021/07/10 07:21:16;;;;;;;6.13;3.22;;;;;;;22.49;53.51;96896.41;4967420;28;20055;-64
2021/07/10 07:23:41;;;;;;;3.80;2.28;;;;;;;23.90;48.60;96902.16;4974329;28;20039;-63
2021/07/10 07:26:07;;;;;;;3.50;2.38;;;;;;;22.76;53.46;96898.88;4964746;28;20176;-61
2021/07/10 07:28:32;;;;;;;6.10;2.13;;;;;;;24.14;47.78;96899.75;4976792;28;20042;-65
2021/07/10 07:30:58;;;;;;;4.90;1.88;;;;;;;22.77;52.70;96897.63;4981161;28;20069;-64
2021/07/10 07:33:25;;;;;;;2.85;2.20;;;;;;;22.86;51.98;96896.97;4975005;28;20471;-64
2021/07/10 07:35:51;;;;;;;4.88;2.05;;;;;;;22.73;51.23;96896.94;4981550;28;20097;-64
2021/07/10 07:38:16;;;;;;;4.63;2.38;;;;;;;23.88;49.42;96896.25;4970424;28;20054;-64
2021/07/10 07:40:41;;;;;;;3.85;2.25;;;;;;;22.41;51.67;96895.06;4976159;28;20101;-64
2021/07/10 07:43:07;;;;;;;3.78;2.20;;;;;;;20.13;59.23;96908.88;4969492;28;20482;-65
2021/07/10 07:45:33;;;;;;;4.05;2.40;;;;;;;21.62;56.78;96897.84;4983449;28;20054;-63
2021/07/10 07:47:58;;;;;;;4.28;2.47;;;;;;;20.76;58.15;96900.56;4978316;28;20162;-63
2021/07/10 07:50:24;;;;;;;7.28;2.72;;;;;;;22.74;52.59;96894.94;4943182;28;20523;-63
2021/07/10 07:52:49;;;;;;;3.83;2.70;;;;;;;21.76;55.30;96897.50;4970409;28;20046;-63
2021/07/10 07:55:15;;;;;;;5.43;2.38;;;;;;;21.44;57.94;96894.69;4951772;28;20500;-63
2021/07/10 07:57:41;;;;;;;3.78;2.55;;;;;;;21.18;58.31;96895.25;4967768;28;20402;-63
2021/07/10 08:00:14;;;;;;;4.13;2.58;;;;;;;21.85;56.47;96891.31;4968790;28;20137;-64
2021/07/10 08:02:40;;;;;;;3.67;1.92;;;;;;;21.49;57.80;96891.41;4963985;28;20053;-64
2021/07/10 08:05:06;;;;;;;3.17;1.88;;;;;;;23.14;53.11;96887.00;4971293;28;20042;-64
2021/07/10 08:07:32;;;;;;;5.75;2.45;;;;;;;24.12;49.18;96885.44;4947507;28;20396;-64
2021/07/10 08:09:57;;;;;;;4.70;2.45;;;;;;;23.78;48.96;96888.97;4972887;28;20045;-64
2021/07/10 08:12:23;;;;;;;3.42;2.30;;;;;;;22.12;53.49;96895.81;4945189;28;20052;-65
2021/07/10 08:14:48;;;;;;;5.30;2.70;;;;;;;22.44;53.70;96886.59;4970688;28;20057;-64
2021/07/10 08:17:14;;;;;;;5.90;2.78;;;;;;;22.24;54.43;96886.72;4977076;28;20101;-64
2021/07/10 08:19:40;;;;;;;5.20;2.53;;;;;;;22.91;53.89;96882.47;4955772;28;20403;-64
2021/07/10 08:22:06;;;;;;;5.85;2.83;;;;;;;22.09;55.12;96880.75;4959790;28;20046;-64
2021/07/10 08:24:31;;;;;;;5.63;3.00;;;;;;;22.22;54.27;96880.00;4982270;28;20113;-63
2021/07/10 08:26:56;;;;;;;6.70;3.88;;;;;;;21.91;55.90;96875.63;4983370;28;20049;-64
2021/07/10 08:29:22;;;;;;;15.63;3.30;;;;;;;21.99;55.58;96872.66;4969735;28;20736;-64
2021/07/10 08:31:47;;;;;;;4.80;2.65;;;;;;;23.09;52.37;96870.78;4983257;28;20042;-63
2021/07/10 08:34:13;;;;;;;6.30;2.60;;;;;;;22.29;54.07;96861.09;4974964;28;20042;-65
2021/07/10 08:36:38;;;;;;;6.57;3.38;;;;;;;22.05;55.34;96859.72;4982949;28;20141;-65
2021/07/10 08:39:07;;;;;;;7.55;3.30;;;;;;;22.57;54.69;96846.78;4971836;28;20046;-62
2021/07/10 08:41:33;;;;;;;3.90;2.80;;;;;;;22.06;53.86;96853.72;4981596;28;20121;-64
2021/07/10 08:43:59;;;;;;;5.38;2.53;;;;;;;21.85;56.06;96852.28;4973754;28;20043;-64
2021/07/10 08:46:25;;;;;;;4.55;3.08;;;;;;;22.32;55.70;96854.63;4976334;28;20487;-64
2021/07/10 08:48:50;;;;;;;4.65;2.88;;;;;;;22.41;54.20;96842.03;4974599;28;20550;-62
2021/07/10 08:51:16;;;;;;;4.45;3.47;;;;;;;22.10;56.20;96839.69;4974463;28;20173;-66
2021/07/10 08:53:42;;;;;;;5.40;3.00;;;;;;;22.19;55.63;96831.44;4981591;28;20031;-65
2021/07/10 08:56:08;;;;;;;4.65;2.92;;;;;;;23.24;52.75;96840.38;4973512;28;20057;-62
2021/07/10 08:58:37;;;;;;;3.03;2.25;;;;;;;24.67;49.31;96834.72;4976426;28;20478;-65
2021/07/10 09:01:06;;;;;;;4.00;2.67;;;;;;;23.75;51.35;96836.72;4975289;28;20042;-62
2021/07/10 09:03:31;;;;;;;4.72;2.88;;;;;;;22.20;53.91;96835.81;4974407;28;20054;-63
2021/07/10 09:05:57;;;;;;;4.97;2.83;;;;;;;21.85;55.94;96845.91;4958142;28;20050;-63
2021/07/10 09:08:27;;;;;;;4.13;2.60;;;;;;;22.44;54.98;96841.94;4976468;28;20489;-64
2021/07/10 09:11:00;;;;;;;3.85;2.50;;;;;;;24.32;49.50;96847.97;4977191;28;20077;-64
2021/07/10 09:13:48;;;;;;;4.53;2.88;;;;;;;24.41;49.57;96840.41;4969878;28;20183;-66
2021/07/10 09:16:28;;;;;;;3.97;2.85;;;;;;;24.59;49.02;96844.59;4976510;28;20042;-65
2021/07/10 09:19:00;;;;;;;3.97;2.60;;;;;;;23.81;51.65;96846.91;4978575;28;20046;-65
2021/07/10 09:21:51;;;;;;;5.93;3.00;;;;;;;23.44;50.65;96845.72;4976647;28;20137;-64
2021/07/10 09:24:22;;;;;;;7.93;3.00;;;;;;;24.04;44.94;96834.53;4967521;28;20058;-63
2021/07/10 09:26:50;;;;;;;6.25;3.40;;;;;;;23.14;49.35;96830.31;4982939;28;20054;-64
2021/07/10 09:29:19;;;;;;;6.78;3.88;;;;;;;23.42;50.32;96829.41;4978510;28;20065;-63
2021/07/10 09:32:06;;;;;;;6.00;3.50;;;;;;;23.64;48.88;96834.28;4984162;28;20035;-65
2021/07/10 09:34:43;;;;;;;5.78;3.38;;;;;;;25.24;45.75;96828.13;4973848;28;20053;-65
2021/07/10 09:37:13;;;;;;;6.68;4.10;;;;;;;23.00;51.98;96809.97;4969035;28;20069;-63
2021/07/10 09:40:09;;;;;;;5.00;2.95;;;;;;;23.40;49.05;96812.31;4963862;28;20427;-64
2021/07/10 09:42:43;;;;;;;6.22;3.20;;;;;;;23.11;51.74;96814.47;4951528;28;20054;-64
2021/07/10 09:45:17;;;;;;;5.18;2.22;;;;;;;23.02;53.16;96815.09;4973124;28;20137;-63
2021/07/10 09:47:43;;;;;;;2.85;2.10;;;;;;;23.12;50.71;96805.66;4979512;28;20173;-61
2021/07/10 09:50:16;;;;;;;3.92;2.33;;;;;;;22.83;51.74;96808.50;4975719;28;20117;-61
2021/07/10 09:52:42;;;;;;;3.35;1.95;;;;;;;23.07;51.02;96801.38;4980147;28;20403;-60
2021/07/10 09:55:13;;;;;;;4.47;1.95;;;;;;;23.13;50.28;96796.03;4974131;28;20038;-61
2021/07/10 09:57:41;;;;;;;7.03;2.53;;;;;;;24.00;52.96;96786.34;4973396;28;20053;-63
2021/07/10 10:00:07;;;;;;;3.58;1.90;;;;;;;23.98;48.92;96782.41;4969143;28;20057;-63
2021/07/10 10:02:35;;;;;;;6.13;2.70;;;;;;;23.52;48.37;96782.00;4985036;28;20042;-63
2021/07/10 10:05:08;;;;;;;3.10;2.08;;;;;;;24.09;47.99;96788.41;4974027;28;20050;-62
2021/07/10 10:07:44;;;;;;;3.30;2.17;;;;;;;23.00;50.35;96775.69;4981845;28;20047;-63
2021/07/10 10:10:27;;;;;;;4.40;2.50;;;;;;;23.44;52.64;96764.66;4965367;28;20054;-63
2021/07/10 10:13:05;;;;;;;4.38;2.80;;;;;;;23.97;54.76;96758.50;4981833;28;20070;-63
2021/07/10 10:15:44;;;;;;;7.05;2.50;;;;;;;23.86;53.65;96764.47;4962930;28;20179;-63
2021/07/10 10:18:12;;;;;;;4.20;2.30;;;;;;;23.66;50.80;96757.13;4964853;28;20046;-63
2021/07/10 10:20:39;;;;;;;3.75;1.83;;;;;;;23.96;49.60;96757.69;4966544;28;20526;-63
2021/07/10 10:23:06;;;;;;;4.20;2.00;;;;;;;23.73;52.07;96756.06;4962603;28;20046;-62
2021/07/10 10:25:34;;;;;;;3.95;2.80;;;;;;;23.51;55.23;96755.28;4969945;28;20105;-64
2021/07/10 10:28:03;;;;;;;4.47;2.90;;;;;;;24.12;53.79;96750.34;4980920;28;20046;-64
2021/07/10 10:30:28;;;;;;;6.97;2.50;;;;;;;25.30;52.32;96742.19;4978145;28;20129;-64
2021/07/10 10:32:54;;;;;;;3.17;2.08;;;;;;;25.31;50.12;96738.94;4968932;28;20145;-64
2021/07/10 10:35:19;;;;;;;3.55;1.90;;;;;;;25.73;48.42;96729.16;4967420;28;20042;-64
2021/07/10 10:37:46;;;;;;;4.22;2.00;;;;;;;26.30;45.10;96732.22;4980977;28;20042;-64
2021/07/10 10:40:20;;;;;;;2.42;1.80;;;;;;;26.46;45.45;96733.13;4973696;28;20057;-64
2021/07/10 10:42:51;;;;;;;2.20;1.60;;;;;;;26.55;45.29;96729.53;4977509;28;20050;-64
2021/07/10 10:45:17;;;;;;;2.47;1.50;;;;;;;26.48;44.26;96730.63;4973479;28;20373;-64
2021/07/10 10:47:52;;;;;;;2.67;1.73;;;;;;;26.47;45.08;96729.06;4975890;28;20101;-64
2021/07/10 10:50:20;;;;;;;32.70;22.58;;;;;;;26.57;46.74;96721.41;4964275;28;20051;-64
2021/07/10 10:52:47;;;;;;;3.55;1.80;;;;;;;24.75;49.27;96723.19;4979462;28;20050;-64
2021/07/10 10:55:14;;;;;;;3.78;1.80;;;;;;;24.66;48.36;96723.16;4971081;28;20121;-64
2021/07/10 10:57:46;;;;;;;3.00;1.80;;;;;;;25.17;47.63;96711.47;4962293;28;20615;-64
2021/07/10 11:00:24;;;;;;;2.95;1.80;;;;;;;24.80;47.67;96720.56;4973836;28;20082;-64
2021/07/10 11:02:49;;;;;;;2.40;1.52;;;;;;;25.05;47.40;96715.16;4972566;28;20116;-64
2021/07/10 11:05:35;;;;;;;6.17;1.70;;;;;;;25.14;48.63;96713.19;4971500;28;20479;-64
2021/07/10 11:08:22;;;;;;;3.35;2.05;;;;;;;26.18;48.05;96699.53;4968192;28;20303;-64
2021/07/10 11:10:53;;;;;;;3.55;2.55;;;;;;;25.56;49.38;96707.03;4976463;28;20133;-65
2021/07/10 11:13:37;;;;;;;4.32;2.38;;;;;;;24.93;50.51;96700.06;4975167;28;20129;-64
2021/07/10 11:16:04;;;;;;;3.80;2.45;;;;;;;25.40;51.34;96690.50;4978757;28;20051;-62
2021/07/10 11:18:48;;;;;;;6.28;4.43;;;;;;;25.47;50.10;96695.81;4982484;28;20531;-63
2021/07/10 11:21:39;;;;;;;4.35;2.95;;;;;;;25.72;50.04;96691.16;4978494;28;20049;-63
2021/07/10 11:24:20;;;;;;;4.43;2.28;;;;;;;25.80;47.85;96681.16;4978268;28;20446;-62
2021/07/10 11:26:54;;;;;;;15.75;11.23;;;;;;;25.74;49.84;96683.03;4964086;28;20130;-64
2021/07/10 11:29:37;;;;;;;5.47;2.50;;;;;;;26.02;46.77;96674.59;4975933;28;20035;-65